If you wish to contribute or participate in the discussions about articles you are invited to join SKYbrary as a registered user

 Actions

Avignon-Caumont Airport

From SKYbrary Wiki

LFMV /
Revision as of 20:14, 16 February 2015 by Timo.Kouwenhoven (talk | contribs) (LF Airports CSV import)
(diff) ← Older revision | Latest revision (diff) | Newer revision → (diff)
Airport
ICAO: LFMV – IATA: AVN
Summary
Name Avignon-Caumont Airport
Region Europe
Territory France FR.gif
Location , Provence-Alpes-Cote d'Azur
Serving Avignon
Elevation 37.795 m
124 ft
124 ft37.795 m
Type medium airport
Coordinates 43° 54' 26.28" N, 4° 54' 6.59" E
Runways
Designator Length Width Surface ROPS
17/35 1880 m6,167.979 ft
45 m147.638 ft
ASP yes/yes


METAR
Observation LFMV 241300Z AUTO VRB06KT CAVOK 33/13 Q1018 NOSIG
Station CAUMONT
Date/Time 24 August 2019 13:00:00
Wind direction °
Wind speed 06 kts
Lowest cloud amount clouds and visibility OK
Temperature 33°C
Dew point 13°C
Humidity 29%
QNH 1018 hPa
Weather condition n/a